createdAt,value
2019-01-18T05:43:28.813Z,5.43
2019-01-18T05:45:58.069Z,7.30
2019-01-18T05:48:27.244Z,6.73
2019-01-18T05:50:56.433Z,4.53
2019-01-18T05:53:26.076Z,7.00
2019-01-18T05:55:55.252Z,4.97
2019-01-18T05:58:24.401Z,5.20
2019-01-18T06:01:13.424Z,7.50
2019-01-18T06:03:42.587Z,7.57
2019-01-18T06:06:11.867Z,5.83
2019-01-18T06:08:41.032Z,5.93
2019-01-18T06:11:10.221Z,6.00
2019-01-18T06:13:39.404Z,5.27
2019-01-18T06:16:08.659Z,8.63
2019-01-18T06:18:37.819Z,9.00
2019-01-18T06:21:07.035Z,8.43
2019-01-18T06:23:36.275Z,5.57
2019-01-18T06:26:05.497Z,7.47
2019-01-18T06:28:34.739Z,6.60
2019-01-18T06:31:03.934Z,6.37
2019-01-18T06:33:33.448Z,6.73
2019-01-18T06:36:02.707Z,6.17
2019-01-18T06:38:31.908Z,6.47
2019-01-18T06:41:11.417Z,6.80
2019-01-18T06:43:40.601Z,8.30
2019-01-18T06:46:09.882Z,5.47
2019-01-18T06:48:39.808Z,7.33
2019-01-18T06:51:09.083Z,5.03
2019-01-18T06:53:38.263Z,6.83
2019-01-18T06:56:07.447Z,7.33
2019-01-18T06:58:36.612Z,8.57
2019-01-18T07:01:08.591Z,7.20
2019-01-18T07:03:37.233Z,7.10
2019-01-18T07:06:06.409Z,8.23
2019-01-18T07:08:35.579Z,6.63
2019-01-18T07:11:04.819Z,8.47
2019-01-18T07:13:33.988Z,8.07
2019-01-18T07:16:03.201Z,8.73
2019-01-18T07:18:32.363Z,8.80
2019-01-18T07:21:01.627Z,6.97
2019-01-18T07:23:30.830Z,5.87
2019-01-18T07:26:00.100Z,7.43
2019-01-18T07:28:29.278Z,7.10
2019-01-18T07:30:58.561Z,7.17
2019-01-18T07:33:28.149Z,8.73
2019-01-18T07:35:57.435Z,8.47
2019-01-18T07:38:26.700Z,10.77
2019-01-18T07:40:56.119Z,10.73
2019-01-18T07:43:25.366Z,7.60
2019-01-18T07:45:54.631Z,9.70
2019-01-18T07:48:24.081Z,7.17
2019-01-18T07:50:53.315Z,8.27
2019-01-18T07:53:22.570Z,9.23
2019-01-18T07:55:52.057Z,13.13
2019-01-18T07:58:21.244Z,8.57
2019-01-18T08:00:50.500Z,9.37
2019-01-18T08:03:19.726Z,9.60
2019-01-18T08:05:49.191Z,9.57
2019-01-18T08:08:18.475Z,13.53
2019-01-18T08:10:47.774Z,9.67
2019-01-18T08:13:17.085Z,6.60
2019-01-18T08:15:46.233Z,8.90
2019-01-18T08:18:15.461Z,7.97
2019-01-18T08:20:44.722Z,6.33
2019-01-18T08:23:13.893Z,7.93
2019-01-18T08:25:43.102Z,8.03
2019-01-18T08:28:12.312Z,8.57
2019-01-18T08:30:41.480Z,5.60
2019-01-18T08:33:10.915Z,6.50
2019-01-18T08:35:40.379Z,6.90
2019-01-18T08:38:09.953Z,6.53
2019-01-18T08:40:43.543Z,6.73
2019-01-18T08:43:17.352Z,6.67
2019-01-18T08:45:58.762Z,6.63
2019-01-18T08:48:28.012Z,5.73
2019-01-18T08:50:57.267Z,8.40
2019-01-18T08:53:27.272Z,8.67
2019-01-18T08:55:56.613Z,6.77
2019-01-18T08:58:25.962Z,5.63
2019-01-18T09:00:55.158Z,7.37
2019-01-18T09:03:24.320Z,7.23
2019-01-18T09:05:53.534Z,6.77
2019-01-18T09:08:22.930Z,7.93
2019-01-18T09:10:52.471Z,7.50
2019-01-18T09:13:21.686Z,6.80
2019-01-18T09:15:51.073Z,7.97
2019-01-18T09:18:20.324Z,9.23
2019-01-18T09:20:49.508Z,9.17
2019-01-18T09:23:18.724Z,4.10
2019-01-18T09:25:49.391Z,5.63
2019-01-18T09:28:18.537Z,8.13
2019-01-18T09:30:48.218Z,7.23
2019-01-18T09:33:17.872Z,5.37
2019-01-18T09:35:47.076Z,5.67
2019-01-18T09:38:18.092Z,5.97
2019-01-18T09:40:47.629Z,6.10
2019-01-18T09:43:16.876Z,4.83
2019-01-18T09:45:46.244Z,7.67
2019-01-18T09:48:15.408Z,5.67
2019-01-18T09:50:44.658Z,6.73
2019-01-18T09:53:13.875Z,6.37
2019-01-18T09:55:43.132Z,5.90
2019-01-18T09:58:12.504Z,5.93
2019-01-18T10:00:41.741Z,7.13
2019-01-18T10:03:10.911Z,5.10
2019-01-18T10:05:40.146Z,7.23
2019-01-18T10:08:11.580Z,5.00
2019-01-18T10:10:41.347Z,4.83
2019-01-18T10:13:10.632Z,3.63
2019-01-18T10:15:44.793Z,4.47
2019-01-18T10:18:14.837Z,3.93
2019-01-18T10:20:44.083Z,6.83
2019-01-18T10:23:13.383Z,5.23
2019-01-18T10:25:42.962Z,5.97
2019-01-18T10:28:12.157Z,4.40
2019-01-18T10:30:41.351Z,4.77
2019-01-18T10:33:12.658Z,6.00
2019-01-18T10:35:41.908Z,5.40
2019-01-18T10:38:11.056Z,7.30
2019-01-18T10:40:40.280Z,6.87
2019-01-18T10:43:09.997Z,7.77
2019-01-18T10:45:39.254Z,8.70
2019-01-18T10:48:08.597Z,8.33
2019-01-18T10:50:38.004Z,7.93
2019-01-18T10:53:07.309Z,7.03
2019-01-18T10:55:36.586Z,7.57
2019-01-18T10:58:06.470Z,9.87
2019-01-18T11:00:37.328Z,6.97
2019-01-18T11:03:07.168Z,7.63
2019-01-18T11:05:36.441Z,6.67
2019-01-18T11:08:06.079Z,7.23
2019-01-18T11:10:35.274Z,6.47
2019-01-18T11:13:04.653Z,6.17
2019-01-18T11:15:35.935Z,7.27
2019-01-18T11:18:06.011Z,8.27
2019-01-18T11:20:39.418Z,13.40
2019-01-18T11:23:08.575Z,9.77
2019-01-18T11:25:37.848Z,8.93
2019-01-18T11:28:07.520Z,7.70
2019-01-18T11:30:36.793Z,6.30
2019-01-18T11:33:06.029Z,6.07
2019-01-18T11:35:35.213Z,7.43
2019-01-18T11:38:05.007Z,7.93
2019-01-18T11:40:34.192Z,7.27
2019-01-18T11:43:03.383Z,9.00
2019-01-18T11:45:32.569Z,5.03
2019-01-18T11:48:01.755Z,5.77
2019-01-18T11:50:30.989Z,6.60
2019-01-18T11:53:00.204Z,4.30
2019-01-18T11:55:29.359Z,7.37
2019-01-18T11:57:58.640Z,8.40
2019-01-18T12:00:28.676Z,6.37
2019-01-18T12:02:57.893Z,6.57
2019-01-18T12:05:27.127Z,6.43
2019-01-18T12:07:56.376Z,5.57
2019-01-18T12:10:28.155Z,6.67
2019-01-18T12:12:57.517Z,7.57
2019-01-18T12:15:27.279Z,6.10
2019-01-18T12:17:56.491Z,8.33
2019-01-18T12:20:36.476Z,5.70
2019-01-18T12:23:07.129Z,5.97
2019-01-18T12:25:36.830Z,6.97
2019-01-18T12:28:07.126Z,6.10
2019-01-18T12:30:37.414Z,4.60
2019-01-18T12:33:07.498Z,6.37
2019-01-18T12:35:36.864Z,6.23
2019-01-18T12:38:06.394Z,4.10
2019-01-18T12:40:35.718Z,5.73
2019-01-18T12:43:05.159Z,5.17
2019-01-18T12:45:34.344Z,5.03
2019-01-18T12:48:03.640Z,6.23
2019-01-18T12:50:36.592Z,5.63
2019-01-18T12:53:06.618Z,6.40
2019-01-18T12:55:37.175Z,8.60
2019-01-18T12:58:07.337Z,6.33
2019-01-18T13:00:37.122Z,7.50
2019-01-18T13:03:07.904Z,6.27
2019-01-18T13:05:43.446Z,7.27
2019-01-18T13:08:12.710Z,4.73
2019-01-18T13:10:41.890Z,5.07
2019-01-18T13:13:11.585Z,7.80
2019-01-18T13:15:48.431Z,5.23
2019-01-18T13:18:17.675Z,5.60
2019-01-18T13:20:46.984Z,5.67
2019-01-18T13:23:16.261Z,5.37
2019-01-18T13:25:45.609Z,7.73
2019-01-18T13:28:17.371Z,6.13
2019-01-18T13:30:48.139Z,7.30
2019-01-18T13:33:17.668Z,6.87
2019-01-18T13:35:46.841Z,6.07
2019-01-18T13:38:15.978Z,4.50
2019-01-18T13:40:45.205Z,3.80
2019-01-18T13:43:14.468Z,3.20
2019-01-18T13:45:43.668Z,4.33
2019-01-18T13:48:12.929Z,4.90
2019-01-18T13:50:43.315Z,6.50
2019-01-18T13:53:14.037Z,5.20
2019-01-18T13:55:43.243Z,5.67
2019-01-18T13:58:12.459Z,6.27
2019-01-18T14:00:41.792Z,4.63
2019-01-18T14:03:11.117Z,7.17
2019-01-18T14:05:40.342Z,4.87
2019-01-18T14:08:09.738Z,3.63
2019-01-18T14:10:39.089Z,5.67
2019-01-18T14:13:08.335Z,4.77
2019-01-18T14:15:37.752Z,5.60
2019-01-18T14:18:07.319Z,4.03
2019-01-18T14:20:36.696Z,4.17
2019-01-18T14:23:06.231Z,5.47
2019-01-18T14:25:35.529Z,6.67
2019-01-18T14:28:05.023Z,5.10
2019-01-18T14:30:35.859Z,3.20
2019-01-18T14:33:05.977Z,4.10
2019-01-18T14:35:35.314Z,3.87
2019-01-18T14:38:04.751Z,5.30
2019-01-18T14:40:34.075Z,3.73
2019-01-18T14:43:03.279Z,3.67
2019-01-18T14:45:35.566Z,4.80
2019-01-18T14:48:04.974Z,5.13
2019-01-18T14:50:34.173Z,4.80
2019-01-18T14:53:03.323Z,4.63
2019-01-18T14:55:32.545Z,3.53
2019-01-18T14:58:02.570Z,4.67
2019-01-18T15:00:37.940Z,4.63
2019-01-18T15:03:07.410Z,5.30
2019-01-18T15:05:36.690Z,6.13
2019-01-18T15:08:06.841Z,7.63
2019-01-18T15:10:36.429Z,5.47
2019-01-18T15:13:18.336Z,6.07
2019-01-18T15:15:48.243Z,6.57
2019-01-18T15:18:18.914Z,7.80
2019-01-18T15:20:48.086Z,5.87
2019-01-18T15:23:17.337Z,5.67
2019-01-18T15:25:46.578Z,5.50
2019-01-18T15:28:15.770Z,5.30
2019-01-18T15:30:45.002Z,6.97
2019-01-18T15:33:15.829Z,9.67
2019-01-18T15:35:45.004Z,8.10
2019-01-18T15:38:15.251Z,6.17
2019-01-18T15:40:47.725Z,9.87
2019-01-18T15:43:19.463Z,8.00
2019-01-18T15:45:48.945Z,11.27
2019-01-18T15:48:18.140Z,7.90
2019-01-18T15:50:47.476Z,10.00
2019-01-18T15:53:16.804Z,12.53
2019-01-18T15:55:46.060Z,13.53
2019-01-18T15:58:15.438Z,12.63
2019-01-18T16:00:45.493Z,11.73
2019-01-18T16:03:16.068Z,15.40
2019-01-18T16:05:45.635Z,17.93
2019-01-18T16:08:14.841Z,15.00
2019-01-18T16:10:44.075Z,20.90
2019-01-18T16:13:14.046Z,20.73
2019-01-18T16:16:17.480Z,28.37
2019-01-18T16:18:47.156Z,29.37
2019-01-18T16:21:16.409Z,26.77
2019-01-18T16:23:45.943Z,24.23
2019-01-18T16:26:17.003Z,15.77
2019-01-18T16:28:46.273Z,18.67
2019-01-18T16:31:15.972Z,17.73
2019-01-18T16:33:45.409Z,13.00
2019-01-18T16:36:14.623Z,20.20
2019-01-18T16:38:44.217Z,18.73
2019-01-18T16:41:14.730Z,14.30
2019-01-18T16:43:46.031Z,14.17
2019-01-18T16:46:15.266Z,12.73
2019-01-18T16:48:45.465Z,16.20
2019-01-18T16:51:15.195Z,12.70
2019-01-18T16:53:44.429Z,12.43
2019-01-18T16:56:13.699Z,12.23
2019-01-18T16:58:44.443Z,10.73
2019-01-18T17:01:13.759Z,12.63
2019-01-18T17:03:43.063Z,12.07
2019-01-18T17:06:12.669Z,14.63
2019-01-18T17:08:41.992Z,11.73
2019-01-18T17:11:11.371Z,11.10
2019-01-18T17:13:41.849Z,19.23
2019-01-18T17:16:11.120Z,16.67
2019-01-18T17:18:41.135Z,14.13
2019-01-18T17:21:10.446Z,17.27
2019-01-18T17:23:39.743Z,17.60
2019-01-18T17:26:09.473Z,16.50
2019-01-18T17:28:38.747Z,18.37
2019-01-18T17:31:08.073Z,21.67
2019-01-18T17:33:38.588Z,15.57
2019-01-18T17:36:19.737Z,17.40
2019-01-18T17:39:26.000Z,16.43
2019-01-18T17:42:25.481Z,21.67
2019-01-18T17:45:46.901Z,20.97
2019-01-18T17:49:03.966Z,19.90
2019-01-18T17:52:25.288Z,13.63
2019-01-18T17:55:14.009Z,16.83
2019-01-18T17:58:36.444Z,18.57
2019-01-18T18:01:46.204Z,16.20
2019-01-18T18:04:26.597Z,18.93
2019-01-18T18:07:23.936Z,17.67
2019-01-18T18:10:21.270Z,15.80
2019-01-18T18:13:05.957Z,16.07
2019-01-18T18:16:31.705Z,18.87
2019-01-18T18:19:34.262Z,17.97
2019-01-18T18:22:33.454Z,17.70
2019-01-18T18:25:48.915Z,14.97
2019-01-18T18:29:06.815Z,16.53
2019-01-18T18:32:24.680Z,17.77
2019-01-18T18:35:26.604Z,16.10
2019-01-18T18:38:39.728Z,18.53
2019-01-18T18:41:36.075Z,17.50
2019-01-18T18:44:45.020Z,14.63
2019-01-18T18:47:46.011Z,16.70
2019-01-18T18:50:47.306Z,17.93
2019-01-18T18:54:05.416Z,19.10
2019-01-18T18:57:12.963Z,14.30
2019-01-18T19:00:02.984Z,18.70
2019-01-18T19:02:40.281Z,15.87
2019-01-18T19:05:56.924Z,16.60
2019-01-18T19:09:05.839Z,19.60
2019-01-18T19:12:02.525Z,20.53
2019-01-18T19:15:22.467Z,18.43
2019-01-18T19:18:44.685Z,16.23
2019-01-18T19:21:48.687Z,15.33
2019-01-18T19:25:08.020Z,17.33
2019-01-18T19:27:58.911Z,16.27
2019-01-18T19:31:04.309Z,20.67
2019-01-18T19:33:54.128Z,21.37
2019-01-18T19:37:03.117Z,24.97
2019-01-18T19:40:19.651Z,20.87
2019-01-18T19:43:13.655Z,22.67
2019-01-18T19:46:20.482Z,27.23
2019-01-18T19:49:13.971Z,20.60
2019-01-18T19:51:56.698Z,23.90
2019-01-18T19:54:44.462Z,22.83
2019-01-18T19:57:59.564Z,21.53
2019-01-18T20:00:58.757Z,20.33
2019-01-18T20:04:00.970Z,21.20
2019-01-18T20:07:13.445Z,20.13
2019-01-18T20:10:14.870Z,24.17
2019-01-18T20:13:28.324Z,23.27
2019-01-18T20:16:44.248Z,23.20
2019-01-18T20:19:45.858Z,23.47
2019-01-18T20:22:43.190Z,19.00
2019-01-18T20:26:12.136Z,19.40
2019-01-18T20:29:12.123Z,19.17
2019-01-18T20:32:04.947Z,22.30
2019-01-18T20:35:33.829Z,21.47
2019-01-18T20:38:40.155Z,27.43
2019-01-18T20:41:45.738Z,25.05
2019-01-18T20:44:55.039Z,25.87
2019-01-18T20:47:54.243Z,28.23
2019-01-18T20:51:23.431Z,23.83
2019-01-18T20:54:35.389Z,25.20
2019-01-18T20:58:03.771Z,22.17
2019-01-18T21:01:26.235Z,26.27
2019-01-18T21:04:26.499Z,25.90
2019-01-18T21:07:20.394Z,23.80
2019-01-18T21:10:06.056Z,22.10
2019-01-18T21:12:50.286Z,23.23
2019-01-18T21:15:48.225Z,22.23
2019-01-18T21:18:53.285Z,25.93
2019-01-18T21:22:06.521Z,25.87
2019-01-18T21:25:09.716Z,21.80
2019-01-18T21:28:09.823Z,25.40
2019-01-18T21:31:18.624Z,24.73
2019-01-18T21:34:18.824Z,21.33
2019-01-18T21:37:48.183Z,27.02
2019-01-18T21:40:30.912Z,25.37
2019-01-18T21:43:56.065Z,24.77
2019-01-18T21:47:02.578Z,26.27
2019-01-18T21:50:10.051Z,26.60
2019-01-18T21:53:22.067Z,25.40
2019-01-18T21:56:12.782Z,28.50
2019-01-18T21:59:20.537Z,28.47
2019-01-18T22:02:25.151Z,24.33
2019-01-18T22:05:23.789Z,29.35
2019-01-18T22:08:27.157Z,28.93
2019-01-18T22:11:24.880Z,24.97
2019-01-18T22:14:11.769Z,25.83
2019-01-18T22:17:13.934Z,27.03
2019-01-18T22:20:17.632Z,26.10
2019-01-18T22:23:21.579Z,26.40
2019-01-18T22:26:53.108Z,23.00
2019-01-18T22:30:10.175Z,24.47
